createdAt,value
2022-11-03T05:28:48.290Z,0.01
2022-11-03T05:36:42.886Z,0.03
2022-11-03T05:39:13.491Z,0.04
2022-11-03T05:41:30.436Z,0.06
2022-11-03T05:43:32.268Z,0.08
2022-11-03T05:46:23.301Z,0.13
2022-11-03T05:48:59.662Z,0.21
2022-11-03T05:51:22.444Z,0.29
2022-11-03T05:53:30.972Z,0.43
2022-11-03T05:56:28.402Z,0.74
2022-11-03T05:59:11.598Z,1.14
2022-11-03T06:01:40.382Z,1.71
2022-11-03T06:03:55.067Z,2.53
2022-11-03T06:05:55.824Z,3.43
2022-11-03T06:08:46.106Z,5.71
2022-11-03T06:11:20.448Z,7.93
2022-11-03T06:13:41.281Z,9.53
2022-11-03T06:15:48.225Z,11.07
2022-11-03T06:18:43.798Z,13.45
2022-11-03T06:21:24.909Z,15.58
2022-11-03T06:23:52.237Z,17.63
2022-11-03T06:26:05.270Z,20.31
2022-11-03T06:28:04.093Z,22.49
2022-11-03T06:30:52.119Z,27.26
2022-11-03T06:33:24.863Z,32.3
2022-11-03T06:35:43.947Z,37.65
2022-11-03T06:37:49.024Z,42.44
2022-11-03T06:40:42.371Z,51.1
2022-11-03T06:43:21.785Z,60.16
2022-11-03T06:45:46.970Z,69.84
2022-11-03T06:47:58.172Z,77.94
2022-11-03T06:50:57.998Z,91.28
2022-11-03T06:53:43.611Z,101.08
2022-11-03T06:56:15.173Z,110.72
2022-11-03T06:58:32.415Z,119.48
2022-11-03T07:00:36.979Z,126.08
2022-11-03T07:03:27.532Z,132.6
2022-11-03T07:06:05.192Z,136.32
2022-11-03T07:08:28.649Z,143
2022-11-03T07:10:38.135Z,155.72
2022-11-03T07:13:36.306Z,171.8
2022-11-03T07:16:20.234Z,193.6
2022-11-03T07:18:49.832Z,210.9
2022-11-03T07:21:05.524Z,226.4
2022-11-03T07:23:06.936Z,233.4
2022-11-03T07:25:57.005Z,239.2
2022-11-03T07:28:32.910Z,253.6
2022-11-03T07:30:54.640Z,254
2022-11-03T07:33:01.729Z,247
2022-11-03T07:36:14.723Z,242.6
2022-11-03T07:38:40.181Z,240.3
2022-11-03T07:41:08.020Z,241.6
2022-11-03T07:43:21.625Z,245
2022-11-03T07:45:21.242Z,258.6
2022-11-03T07:48:09.825Z,281.7
2022-11-03T07:50:43.545Z,317.4
2022-11-03T07:53:03.558Z,349.2
2022-11-03T07:55:09.276Z,423
2022-11-03T07:58:04.164Z,428.9
2022-11-03T08:00:44.216Z,395
2022-11-03T08:03:10.469Z,383.3
2022-11-03T08:05:22.427Z,399.6
2022-11-03T08:07:20.254Z,386.4
2022-11-03T08:10:06.765Z,411.2
2022-11-03T08:12:39.088Z,449.6
2022-11-03T08:14:57.160Z,449.7
2022-11-03T08:17:01.688Z,486.4
2022-11-03T08:19:54.149Z,514.8
2022-11-03T08:22:32.677Z,520.4
2022-11-03T08:24:56.791Z,513.4
2022-11-03T08:27:07.011Z,529.7
2022-11-03T08:30:05.915Z,491.2
2022-11-03T08:32:50.782Z,510
2022-11-03T08:35:21.392Z,489.1
2022-11-03T08:37:37.730Z,431.3
2022-11-03T08:39:40.083Z,433.6
2022-11-03T08:42:31.123Z,538.7
2022-11-03T08:45:07.894Z,498.2
2022-11-03T08:47:30.476Z,566.7
2022-11-03T08:49:38.905Z,547.3
2022-11-03T08:52:36.097Z,515.5
2022-11-03T08:55:19.106Z,522
2022-11-03T08:57:48.112Z,497.9
2022-11-03T09:00:02.764Z,452.4
2022-11-03T09:02:03.251Z,459
2022-11-03T09:04:52.560Z,481.9
2022-11-03T09:10:18.516Z,541.2
2022-11-03T09:11:55.394Z,528.8
2022-11-03T09:14:51.042Z,553.9
2022-11-03T09:17:31.968Z,564.8
2022-11-03T09:19:58.973Z,506
2022-11-03T09:22:11.938Z,466.7
2022-11-03T09:24:10.751Z,466.2
2022-11-03T09:27:01.041Z,458.2
2022-11-03T09:29:45.815Z,456
2022-11-03T09:31:50.863Z,521.2
2022-11-03T09:33:55.781Z,555
2022-11-03T09:36:53.180Z,616.4
2022-11-03T09:39:29.378Z,613.2
2022-11-03T09:41:58.231Z,690.2
2022-11-03T09:44:06.013Z,723.2
2022-11-03T09:47:05.984Z,702.7
2022-11-03T09:49:51.628Z,726.7
2022-11-03T09:52:23.127Z,699.5
2022-11-03T09:54:40.598Z,678.4
2022-11-03T09:56:43.808Z,658.5
2022-11-03T09:59:35.840Z,559.2
2022-11-03T10:02:13.844Z,542.2
2022-11-03T10:04:37.509Z,559.6
2022-11-03T10:06:46.832Z,610.4
2022-11-03T10:09:44.692Z,646.5
2022-11-03T10:12:28.675Z,678.7
2022-11-03T10:14:58.362Z,731.8
2022-11-03T10:17:13.859Z,875.2
2022-11-03T10:19:15.368Z,863
2022-11-03T10:22:05.619Z,914.5
2022-11-03T10:24:41.618Z,1090.8
2022-11-03T10:27:03.614Z,936.6
2022-11-03T10:29:11.272Z,1296.3
2022-11-03T10:32:07.503Z,855.3
2022-11-03T10:34:49.832Z,781.7
2022-11-03T10:37:17.900Z,767.3
2022-11-03T10:39:31.728Z,780.4
2022-11-03T10:41:31.590Z,878.7
2022-11-03T10:44:20.018Z,1002.2
2022-11-03T10:46:51.209Z,1066.2
2022-11-03T10:48:35.510Z,1171.2
2022-11-03T10:51:24.836Z,940.1
2022-11-03T10:54:00.174Z,781.4
2022-11-03T10:56:21.240Z,710
2022-11-03T10:58:28.003Z,668.4
2022-11-03T11:01:23.427Z,612.4
2022-11-03T11:04:04.611Z,600.8
2022-11-03T11:06:31.843Z,595.2
2022-11-03T11:08:44.825Z,586.4
2022-11-03T11:10:43.687Z,577.1
2022-11-03T11:13:31.271Z,597.1
2022-11-03T11:16:04.441Z,617.9
2022-11-03T11:18:23.722Z,628.9
2022-11-03T11:20:28.731Z,630
2022-11-03T11:23:22.340Z,645.7
2022-11-03T11:26:01.890Z,643.8
2022-11-03T11:28:27.190Z,663.3
2022-11-03T11:30:38.297Z,671
2022-11-03T11:33:38.234Z,699.8
2022-11-03T11:36:23.960Z,695.6
2022-11-03T11:38:55.556Z,672.3
2022-11-03T11:41:12.766Z,636.6
2022-11-03T11:43:16.013Z,615.6
2022-11-03T11:46:07.817Z,599.8
2022-11-03T11:48:45.364Z,587
2022-11-03T11:51:08.915Z,581.4
2022-11-03T11:53:17.814Z,585.2
2022-11-03T11:56:15.633Z,582.7
2022-11-03T11:58:59.486Z,593.1
2022-11-03T12:01:29.108Z,590.4
2022-11-03T12:03:44.506Z,555
2022-11-03T12:05:45.848Z,528.1
2022-11-03T12:08:35.805Z,521.4
2022-11-03T12:11:11.607Z,509.1
2022-11-03T12:13:33.078Z,513.7
2022-11-03T12:15:40.591Z,525.6
2022-11-03T12:18:39.498Z,553.7
2022-11-03T12:21:18.694Z,566
2022-11-03T12:23:46.581Z,567.5
2022-11-03T12:26:00.271Z,565.4
2022-11-03T12:27:59.691Z,562.2
2022-11-03T12:30:47.919Z,565.7
2022-11-03T12:33:21.874Z,569.9
2022-11-03T12:35:41.778Z,558.2
2022-11-03T12:37:47.451Z,548.4
2022-11-03T12:40:41.795Z,512.4
2022-11-03T12:43:21.870Z,485.1
2022-11-03T12:45:47.299Z,467.3
2022-11-03T12:47:59.181Z,462.4
2022-11-03T12:49:56.884Z,468.9
2022-11-03T12:52:43.144Z,470
2022-11-03T12:55:15.434Z,470.8
2022-11-03T12:57:33.391Z,465.2
2022-11-03T12:59:37.196Z,447.5
2022-11-03T13:02:29.804Z,446.5
2022-11-03T13:05:08.065Z,447
2022-11-03T13:07:34.840Z,446.4
2022-11-03T13:09:42.347Z,441.1
2022-11-03T13:15:25.450Z,439.8
2022-11-03T13:18:12.057Z,454.5
2022-11-03T13:20:11.879Z,425.9
2022-11-03T13:22:13.897Z,408.9
2022-11-03T13:25:04.543Z,396.6
2022-11-03T13:27:41.182Z,408.8
2022-11-03T13:30:03.611Z,428.1
2022-11-03T13:32:11.816Z,422.7
2022-11-03T13:35:13.384Z,421.4
2022-11-03T13:37:51.314Z,414.4
2022-11-03T13:40:43.015Z,422.8
2022-11-03T13:42:34.166Z,412.6
2022-11-03T13:44:34.531Z,384.3
2022-11-03T13:47:29.854Z,347.8
2022-11-03T13:50:14.461Z,300.8
2022-11-03T13:52:18.849Z,257.4
2022-11-03T14:00:03.518Z,221.2
2022-11-03T14:06:39.434Z,219.7
2022-11-03T14:09:26.762Z,231.2
2022-11-03T14:11:59.692Z,235.1
2022-11-03T14:14:18.343Z,232
2022-11-03T14:19:16.420Z,223.1
2022-11-03T14:21:55.530Z,215.3
2022-11-03T14:24:20.648Z,225.4
2022-11-03T14:26:42.085Z,231.6
2022-11-03T14:29:30.566Z,247.6
2022-11-03T14:32:15.977Z,271.6
2022-11-03T14:34:47.291Z,272
2022-11-03T14:37:04.313Z,260.6
2022-11-03T14:39:07.359Z,243.3
2022-11-03T14:41:58.972Z,200.4
2022-11-03T14:44:36.408Z,169.6
2022-11-03T14:46:59.455Z,146.44
2022-11-03T14:49:08.677Z,133.32
2022-11-03T14:52:06.342Z,135.48
2022-11-03T14:54:49.855Z,134.64
2022-11-03T14:57:19.357Z,129.88
2022-11-03T14:59:34.787Z,129
2022-11-03T15:01:36.023Z,129.96
2022-11-03T15:04:25.757Z,125.92
2022-11-03T15:07:01.323Z,116.8
2022-11-03T15:09:22.758Z,111
2022-11-03T15:11:30.159Z,102.08
2022-11-03T15:14:26.107Z,94
2022-11-03T15:17:07.883Z,95.36
2022-11-03T15:19:35.377Z,93.6
2022-11-03T15:21:48.500Z,81.38
2022-11-03T15:26:36.125Z,69.5
2022-11-03T15:29:09.512Z,55.48
2022-11-03T15:31:29.167Z,42.3
2022-11-03T15:33:34.686Z,36.11
2022-11-03T15:36:28.998Z,28.58
2022-11-03T15:39:09.083Z,23.04
2022-11-03T15:41:34.943Z,19.79
2022-11-03T15:43:46.862Z,17.68
2022-11-03T15:45:44.478Z,15.98
2022-11-03T15:48:33.519Z,14.83
2022-11-03T15:51:02.616Z,13.38
2022-11-03T15:53:20.590Z,11.73
2022-11-03T15:55:24.322Z,10.65
2022-11-03T15:58:16.643Z,8.37
2022-11-03T16:00:55.078Z,6.06
2022-11-03T16:03:19.244Z,5.43
2022-11-03T16:05:29.136Z,4.07
2022-11-03T16:08:27.941Z,2.5
2022-11-03T16:11:12.511Z,1.61
2022-11-03T16:13:42.368Z,0.92
2022-11-03T16:15:58.418Z,0.68
2022-11-03T16:18:00.564Z,0.52
2022-11-03T16:20:51.353Z,0.35
2022-11-03T16:23:27.688Z,0.21
2022-11-03T16:25:50.172Z,0.15
2022-11-03T16:27:58.385Z,0.13
2022-11-03T16:30:55.147Z,0.1
2022-11-03T16:33:37.933Z,0.07
2022-11-03T16:36:06.560Z,0.05
2022-11-03T16:48:05.774Z,0.06
2022-11-03T16:50:12.297Z,0.05
2022-11-03T16:55:47.998Z,0.04
2022-11-03T17:05:13.194Z,0.05
2022-11-03T17:07:50.205Z,0.03
2022-11-03T17:15:03.348Z,0.02
2022-11-03T17:17:42.590Z,0.03
2022-11-03T17:30:34.837Z,0.02
2022-11-03T17:37:46.970Z,0.03
2022-11-03T17:40:24.500Z,0.04
2022-11-03T17:42:47.793Z,0.03
2022-11-03T17:47:54.851Z,0.02
2022-11-03T18:02:50.052Z,0.03
2022-11-03T18:05:13.071Z,0.02
2022-11-03T18:10:15.189Z,0.03
2022-11-03T18:15:24.876Z,0.04
2022-11-03T18:17:38.369Z,0.02
2022-11-03T18:22:25.931Z,0.03
2022-11-03T18:24:59.719Z,0.02
2022-11-03T18:27:24.212Z,0.03
2022-11-03T18:37:25.738Z,0.02
2022-11-03T19:01:21.277Z,0.03
2022-11-03T19:07:04.607Z,0.02
2022-11-03T20:13:39.527Z,0.01
2022-11-03T20:16:04.626Z,0.02
2022-11-03T20:24:01.189Z,0.01
2022-11-03T20:30:53.015Z,0.02
2022-11-03T20:36:22.062Z,0.01
2022-11-03T20:43:52.890Z,0.02
2022-11-03T20:46:36.671Z,0.01
2022-11-03T20:53:23.034Z,0.02
2022-11-03T20:56:16.926Z,0.01
2022-11-03T21:01:10.626Z,0.02
2022-11-03T21:06:14.184Z,0.01
2022-11-03T22:25:13.801Z,0.02
2022-11-03T22:27:23.169Z,0.01
2022-11-03T23:09:48.780Z,0
2022-11-03T23:11:54.544Z,0.01
2022-11-03T23:14:48.946Z,0
2022-11-03T23:59:16.246Z,0.01
